createdAt,value
2018-11-12T00:02:13.227Z,93876.12
2018-11-12T00:04:40.798Z,93874.98
2018-11-12T00:07:08.322Z,93867.37
2018-11-12T00:09:35.787Z,93876.98
2018-11-12T00:12:03.446Z,93874.99
2018-11-12T00:14:30.918Z,93870.13
2018-11-12T00:16:58.449Z,93866.80
2018-11-12T00:19:26.008Z,93869.34
2018-11-12T00:21:53.610Z,93863.66
2018-11-12T00:24:21.049Z,93861.77
2018-11-12T00:26:48.658Z,93850.48
2018-11-12T00:29:16.326Z,93856.33
2018-11-12T00:31:44.558Z,93862.20
2018-11-12T00:34:12.168Z,93855.33
2018-11-12T00:36:39.804Z,93858.19
2018-11-12T00:39:07.977Z,93854.25
2018-11-12T00:41:35.497Z,93845.26
2018-11-12T00:44:03.178Z,93854.17
2018-11-12T00:46:30.802Z,93856.11
2018-11-12T00:48:58.670Z,93850.18
2018-11-12T00:51:26.337Z,93851.80
2018-11-12T00:53:53.830Z,93851.41
2018-11-12T00:56:21.513Z,93854.71
2018-11-12T00:58:49.002Z,93848.33
2018-11-12T01:01:16.644Z,93844.70
2018-11-12T01:03:44.155Z,93850.55
2018-11-12T01:06:11.866Z,93841.82
2018-11-12T01:08:39.508Z,93853.61
2018-11-12T01:11:07.007Z,93844.56
2018-11-12T01:13:34.520Z,93847.60
2018-11-12T01:16:02.024Z,93854.42
2018-11-12T01:18:29.647Z,93860.53
2018-11-12T01:20:57.296Z,93862.39
2018-11-12T01:23:25.932Z,93859.97
2018-11-12T01:25:54.062Z,93864.77
2018-11-12T01:28:21.595Z,93866.57
2018-11-12T01:30:49.279Z,93853.91
2018-11-12T01:33:16.777Z,93856.41
2018-11-12T01:35:44.299Z,93858.63
2018-11-12T01:38:11.807Z,93852.14
2018-11-12T01:40:39.342Z,93854.21
2018-11-12T01:43:06.960Z,93853.64
2018-11-12T01:45:34.454Z,93848.52
2018-11-12T01:48:01.934Z,93846.84
2018-11-12T01:50:29.583Z,93839.77
2018-11-12T01:52:57.249Z,93840.55
2018-11-12T01:55:24.743Z,93839.58
2018-11-12T01:57:52.238Z,93834.52
2018-11-12T02:00:21.120Z,93823.17
2018-11-12T02:02:49.834Z,93827.59
2018-11-12T02:05:17.994Z,93819.02
2018-11-12T02:07:45.530Z,93826.59
2018-11-12T02:10:14.746Z,93824.30
2018-11-12T02:12:42.515Z,93820.37
2018-11-12T02:15:11.803Z,93811.53
2018-11-12T02:17:39.338Z,93809.70
2018-11-12T02:20:08.287Z,93815.70
2018-11-12T02:22:35.978Z,93821.63
2018-11-12T02:25:03.647Z,93818.17
2018-11-12T02:27:31.178Z,93822.70
2018-11-12T02:29:58.835Z,93824.38
2018-11-12T02:32:26.320Z,93827.00
2018-11-12T02:34:54.146Z,93826.66
2018-11-12T02:37:21.628Z,93827.73
2018-11-12T02:39:49.119Z,93830.22
2018-11-12T02:42:16.789Z,93830.27
2018-11-12T02:44:44.287Z,93824.00
2018-11-12T02:47:11.848Z,93815.00
2018-11-12T02:49:39.503Z,93815.91
2018-11-12T02:52:07.158Z,93824.56
2018-11-12T02:54:34.931Z,93825.41
2018-11-12T02:57:02.459Z,93821.23
2018-11-12T02:59:30.489Z,93810.63
2018-11-12T03:01:57.953Z,93807.66
2018-11-12T03:04:25.611Z,93808.48
2018-11-12T03:06:53.231Z,93808.96
2018-11-12T03:09:20.854Z,93804.97
2018-11-12T03:11:48.365Z,93804.61
2018-11-12T03:14:15.872Z,93802.03
2018-11-12T03:16:43.397Z,93797.12
2018-11-12T03:19:11.057Z,93800.95
2018-11-12T03:21:38.643Z,93809.64
2018-11-12T03:24:06.185Z,93819.34
2018-11-12T03:26:33.811Z,93813.52
2018-11-12T03:29:01.359Z,93810.95
2018-11-12T03:31:28.972Z,93811.23
2018-11-12T03:33:56.480Z,93811.40
2018-11-12T03:36:23.970Z,93812.98
2018-11-12T03:38:51.464Z,93815.09
2018-11-12T03:41:19.374Z,93826.05
2018-11-12T03:43:47.011Z,93825.27
2018-11-12T03:46:14.586Z,93833.30
2018-11-12T03:48:42.226Z,93831.98
2018-11-12T03:51:09.841Z,93835.42
2018-11-12T03:53:37.351Z,93833.64
2018-11-12T03:56:05.410Z,93830.05
2018-11-12T03:58:33.021Z,93826.22
2018-11-12T04:01:01.657Z,93820.72
2018-11-12T04:03:29.320Z,93811.19
2018-11-12T04:05:56.823Z,93812.48
2018-11-12T04:08:24.688Z,93817.44
2018-11-12T04:10:52.252Z,93814.38
2018-11-12T04:13:19.947Z,93814.58
2018-11-12T04:15:47.504Z,93804.42
2018-11-12T04:18:15.155Z,93809.78
2018-11-12T04:20:42.810Z,93809.09
2018-11-12T04:23:11.562Z,93808.64
2018-11-12T04:25:40.139Z,93812.80
2018-11-12T04:28:07.648Z,93813.56
2018-11-12T04:30:35.598Z,93803.40
2018-11-12T04:33:03.155Z,93794.00
2018-11-12T04:35:30.735Z,93794.28
2018-11-12T04:37:58.647Z,93792.89
2018-11-12T04:40:26.158Z,93789.77
2018-11-12T04:42:53.673Z,93788.84
2018-11-12T04:45:22.359Z,93786.78
2018-11-12T04:47:50.544Z,93781.45
2018-11-12T04:50:19.828Z,93783.06
2018-11-12T04:52:47.619Z,93788.45
2018-11-12T04:55:16.733Z,93784.13
2018-11-12T04:57:45.967Z,93770.38
2018-11-12T05:00:15.180Z,93776.79
2018-11-12T05:02:42.713Z,93780.06
2018-11-12T05:05:12.979Z,93779.83
2018-11-12T05:07:40.695Z,93784.75
2018-11-12T05:10:10.991Z,93774.83
2018-11-12T05:12:39.008Z,93777.84
2018-11-12T05:15:07.319Z,93780.07
2018-11-12T05:17:35.027Z,93767.13
2018-11-12T05:20:02.583Z,93761.45
2018-11-12T05:22:30.083Z,93758.70
2018-11-12T05:24:57.706Z,93756.55
2018-11-12T05:27:25.382Z,93755.69
2018-11-12T05:29:53.056Z,93753.81
2018-11-12T05:32:20.567Z,93753.62
2018-11-12T05:34:48.263Z,93774.61
2018-11-12T05:37:15.747Z,93764.71
2018-11-12T05:39:43.399Z,93765.59
2018-11-12T05:42:10.897Z,93758.08
2018-11-12T05:44:38.411Z,93758.84
2018-11-12T05:47:06.109Z,93769.80
2018-11-12T05:49:33.778Z,93765.80
2018-11-12T05:52:02.958Z,93768.13
2018-11-12T05:54:30.592Z,93773.77
2018-11-12T05:56:58.103Z,93777.94
2018-11-12T05:59:25.588Z,93770.56
2018-11-12T06:01:53.099Z,93770.80
2018-11-12T06:04:20.613Z,93770.60
2018-11-12T06:06:48.408Z,93773.06
2018-11-12T06:09:15.890Z,93760.88
2018-11-12T06:11:43.511Z,93767.55
2018-11-12T06:14:11.205Z,93763.12
2018-11-12T06:16:38.755Z,93764.92
2018-11-12T06:19:06.422Z,93765.94
2018-11-12T06:21:34.114Z,93758.39
2018-11-12T06:24:01.997Z,93756.81
2018-11-12T06:26:29.494Z,93749.17
2018-11-12T06:28:57.010Z,93753.34
2018-11-12T06:31:24.778Z,93765.46
2018-11-12T06:33:52.214Z,93760.02
2018-11-12T06:36:19.694Z,93756.84
2018-11-12T06:38:47.271Z,93765.94
2018-11-12T06:41:14.770Z,93770.78
2018-11-12T06:43:42.440Z,93774.44
2018-11-12T06:46:10.623Z,93777.88
2018-11-12T06:48:38.111Z,93772.31
2018-11-12T06:51:05.664Z,93787.00
2018-11-12T06:53:33.368Z,93785.92
2018-11-12T06:56:01.226Z,93788.69
2018-11-12T06:58:28.728Z,93791.22
2018-11-12T07:00:56.303Z,93800.57
2018-11-12T07:03:23.876Z,93793.79
2018-11-12T07:05:51.958Z,93799.17
2018-11-12T07:08:19.617Z,93807.58
2018-11-12T07:10:47.104Z,93808.44
2018-11-12T07:13:14.783Z,93806.35
2018-11-12T07:15:45.423Z,93815.48
2018-11-12T07:18:14.231Z,93816.34
2018-11-12T07:20:41.741Z,93821.47
2018-11-12T07:23:09.253Z,93815.95
2018-11-12T07:25:36.747Z,93819.95
2018-11-12T07:28:04.430Z,93829.17
2018-11-12T07:30:32.030Z,93828.63
2018-11-12T07:32:59.903Z,93831.94
2018-11-12T07:35:27.551Z,93825.22
2018-11-12T07:37:55.851Z,93830.13
2018-11-12T07:40:23.844Z,93838.14
2018-11-12T07:42:51.517Z,93840.30
2018-11-12T07:45:20.162Z,93847.20
2018-11-12T07:47:48.566Z,93853.70
2018-11-12T07:50:17.655Z,93847.45
2018-11-12T07:52:45.250Z,93851.50
2018-11-12T07:55:14.181Z,93843.27
2018-11-12T07:57:42.086Z,93841.87
2018-11-12T08:00:11.455Z,93836.63
2018-11-12T08:02:39.912Z,93850.11
2018-11-12T08:05:07.834Z,93844.94
2018-11-12T08:07:35.403Z,93840.66
2018-11-12T08:10:03.412Z,93846.08
2018-11-12T08:12:30.990Z,93839.31
2018-11-12T08:14:58.483Z,93830.13
2018-11-12T08:17:26.286Z,93829.30
2018-11-12T08:19:53.859Z,93828.20
2018-11-12T08:22:21.590Z,93827.42
2018-11-12T08:24:49.330Z,93843.73
2018-11-12T08:27:16.790Z,93846.54
2018-11-12T08:29:44.403Z,93832.91
2018-11-12T08:32:11.863Z,93835.01
2018-11-12T08:34:39.364Z,93830.53
2018-11-12T08:37:09.459Z,93835.31
2018-11-12T08:39:37.198Z,93846.74
2018-11-12T08:42:04.699Z,93847.64
2018-11-12T08:44:32.412Z,93853.03
2018-11-12T08:47:00.200Z,93862.80
2018-11-12T08:49:27.790Z,93863.50
2018-11-12T08:51:55.331Z,93870.86
2018-11-12T08:54:22.864Z,93879.98
2018-11-12T08:56:50.402Z,93878.28
2018-11-12T08:59:18.036Z,93880.01
2018-11-12T09:01:45.429Z,93890.52
2018-11-12T09:04:13.198Z,93901.36
2018-11-12T09:06:40.598Z,93907.91
2018-11-12T09:09:09.415Z,93906.44
2018-11-12T09:11:36.952Z,93919.55
2018-11-12T09:14:04.891Z,93933.94
2018-11-12T09:16:32.423Z,93931.66
2018-11-12T09:18:59.904Z,93925.50
2018-11-12T09:21:28.417Z,93925.52
2018-11-12T09:23:55.976Z,93923.52
2018-11-12T09:26:23.594Z,93933.69
2018-11-12T09:28:51.112Z,93942.00
2018-11-12T09:31:20.058Z,93939.88
2018-11-12T09:33:46.367Z,93941.41
2018-11-12T09:36:13.821Z,93946.11
2018-11-12T09:38:41.417Z,93947.27
2018-11-12T09:41:08.865Z,93958.98
2018-11-12T09:43:36.358Z,93974.58
2018-11-12T09:46:04.126Z,93976.84
2018-11-12T09:48:31.566Z,93972.73
2018-11-12T09:50:59.042Z,93959.25
2018-11-12T09:53:26.527Z,93964.52
2018-11-12T09:55:54.104Z,93969.95
2018-11-12T09:58:21.631Z,93968.77
2018-11-12T10:00:49.476Z,93968.95
2018-11-12T10:03:23.714Z,93963.73
2018-11-12T10:05:51.291Z,93968.95
2018-11-12T10:08:19.512Z,93961.12
2018-11-12T10:10:51.267Z,93972.05
2018-11-12T10:13:21.410Z,93979.80
2018-11-12T10:15:49.464Z,93967.68
2018-11-12T10:20:41.058Z,93978.43
2018-11-12T10:23:08.650Z,93980.58
2018-11-12T10:25:36.139Z,93976.24
2018-11-12T10:28:03.670Z,93975.16
2018-11-12T10:30:31.231Z,93969.19
2018-11-12T10:32:58.818Z,93967.22
2018-11-12T10:35:26.310Z,93960.76
2018-11-12T10:37:53.830Z,93950.73
2018-11-12T10:40:23.520Z,93953.62
2018-11-12T10:42:51.052Z,93949.58
2018-11-12T10:45:18.705Z,93950.71
2018-11-12T10:47:47.344Z,93953.03
2018-11-12T10:50:15.062Z,93953.76
2018-11-12T10:52:42.579Z,93952.57
2018-11-12T10:55:11.321Z,93948.14
2018-11-12T10:57:38.743Z,93955.30
2018-11-12T11:00:15.055Z,93957.37
2018-11-12T11:02:48.259Z,93946.80
2018-11-12T11:05:15.814Z,93952.73
2018-11-12T11:07:43.304Z,93953.55
2018-11-12T11:10:10.909Z,93956.25
2018-11-12T11:12:38.478Z,93947.33
2018-11-12T11:15:06.178Z,93957.08
2018-11-12T11:17:33.682Z,93952.83
2018-11-12T11:20:01.330Z,93960.85
2018-11-12T11:22:28.938Z,93971.16
2018-11-12T11:24:56.470Z,93969.52
2018-11-12T11:27:24.243Z,93968.39
2018-11-12T11:29:52.412Z,93972.13
2018-11-12T11:32:19.984Z,93977.83
2018-11-12T11:34:47.592Z,93980.92
2018-11-12T11:37:15.146Z,93976.98
2018-11-12T11:39:42.740Z,93976.59
2018-11-12T11:42:10.318Z,93966.95
2018-11-12T11:44:37.921Z,93971.92
2018-11-12T11:47:05.542Z,93971.44
2018-11-12T11:49:33.167Z,93976.85
2018-11-12T11:52:01.304Z,93979.30
2018-11-12T11:54:29.561Z,93973.06
2018-11-12T11:56:57.173Z,93967.75
2018-11-12T11:59:24.924Z,93970.08
2018-11-12T12:01:52.538Z,93973.43
2018-11-12T12:04:20.014Z,93970.08
2018-11-12T12:06:47.503Z,93975.83
2018-11-12T12:09:15.047Z,93979.36
2018-11-12T12:11:42.604Z,93979.18
2018-11-12T12:14:10.107Z,93983.75
2018-11-12T12:16:37.621Z,93973.98
2018-11-12T12:19:05.451Z,93969.16
2018-11-12T12:21:32.956Z,93976.30
2018-11-12T12:24:00.451Z,93979.36
2018-11-12T12:26:27.974Z,93978.66
2018-11-12T12:28:55.441Z,93983.27
2018-11-12T12:31:22.919Z,93985.00
2018-11-12T12:33:50.498Z,93987.84
2018-11-12T12:36:18.114Z,93989.68
2018-11-12T12:38:45.602Z,93989.56
2018-11-12T12:41:13.095Z,93994.28
2018-11-12T12:43:40.633Z,93990.60
2018-11-12T12:46:08.287Z,93977.45
2018-11-12T12:48:35.823Z,93965.00
2018-11-12T12:51:03.682Z,93975.38
2018-11-12T12:53:31.171Z,93971.74
2018-11-12T12:55:58.715Z,93984.45
2018-11-12T12:58:26.198Z,93991.17
2018-11-12T13:00:54.985Z,93985.98
2018-11-12T13:03:22.501Z,93974.97
2018-11-12T13:05:50.099Z,93973.88
2018-11-12T13:08:17.698Z,93969.05
2018-11-12T13:10:45.191Z,93974.47
2018-11-12T13:13:12.720Z,93993.14
2018-11-12T13:15:40.218Z,93994.39
2018-11-12T13:18:07.753Z,93987.95
2018-11-12T13:20:35.281Z,93984.59
2018-11-12T13:23:02.911Z,93989.90
2018-11-12T13:25:30.407Z,93987.36
2018-11-12T13:27:57.898Z,93988.53
2018-11-12T13:30:25.415Z,93981.73
2018-11-12T13:32:53.129Z,93991.88
2018-11-12T13:35:22.195Z,93995.11
2018-11-12T13:37:49.703Z,93999.83
2018-11-12T13:40:19.539Z,93998.55
2018-11-12T13:42:49.583Z,94001.45
2018-11-12T13:45:17.083Z,94001.50
2018-11-12T13:47:45.027Z,93994.69
2018-11-12T13:50:15.762Z,93999.26
2018-11-12T13:52:43.529Z,94002.75
2018-11-12T13:55:12.298Z,94010.42
2018-11-12T13:57:39.914Z,94005.70
2018-11-12T14:00:10.633Z,93998.04
2018-11-12T14:02:38.149Z,94014.44
2018-11-12T14:05:06.616Z,94009.46
2018-11-12T14:07:34.215Z,94011.08
2018-11-12T14:10:01.950Z,94013.80
2018-11-12T14:12:29.479Z,94008.09
2018-11-12T14:14:56.978Z,94004.77
2018-11-12T14:17:24.500Z,94008.41
2018-11-12T14:19:52.001Z,94020.97
2018-11-12T14:22:19.666Z,94018.48
2018-11-12T14:24:47.179Z,94026.72
2018-11-12T14:27:14.878Z,94026.72
2018-11-12T14:29:42.379Z,94026.29
2018-11-12T14:32:09.891Z,94032.42
2018-11-12T14:34:37.838Z,94033.80
2018-11-12T14:37:05.371Z,94038.66
2018-11-12T14:39:32.893Z,94031.02
2018-11-12T14:42:01.623Z,94028.80
2018-11-12T14:44:29.195Z,94033.37
2018-11-12T14:46:56.862Z,94046.33
2018-11-12T14:49:24.404Z,94047.78
2018-11-12T14:51:52.051Z,94046.75
2018-11-12T14:54:19.674Z,94042.34
2018-11-12T14:56:47.305Z,94044.56
2018-11-12T14:59:14.850Z,94051.75
2018-11-12T15:01:42.515Z,94058.38
2018-11-12T15:04:10.088Z,94048.96
2018-11-12T15:06:37.737Z,94054.41
2018-11-12T15:09:08.301Z,94058.22
2018-11-12T15:11:35.927Z,94057.47
2018-11-12T15:14:03.490Z,94067.98
2018-11-12T15:16:31.119Z,94068.58
2018-11-12T15:18:58.770Z,94076.36
2018-11-12T15:21:26.398Z,94076.27
2018-11-12T15:23:54.057Z,94073.97
2018-11-12T15:26:21.605Z,94079.52
2018-11-12T15:28:49.214Z,94076.30
2018-11-12T15:31:16.729Z,94078.17
2018-11-12T15:33:44.939Z,94074.36
2018-11-12T15:36:12.698Z,94087.77
2018-11-12T15:38:40.204Z,94079.34
2018-11-12T15:41:07.956Z,94091.06
2018-11-12T15:43:35.570Z,94093.27
2018-11-12T15:46:03.204Z,94086.47
2018-11-12T15:48:30.824Z,94090.53
2018-11-12T15:50:58.384Z,94091.58
2018-11-12T15:53:25.826Z,94099.72
2018-11-12T15:55:53.358Z,94096.20
2018-11-12T15:58:20.914Z,94092.53
2018-11-12T16:00:48.376Z,94101.20
2018-11-12T16:03:15.890Z,94096.46
2018-11-12T16:05:43.550Z,94105.23
2018-11-12T16:08:11.124Z,94107.39
2018-11-12T16:10:38.642Z,94095.55
2018-11-12T16:13:06.210Z,94105.56
2018-11-12T16:15:33.761Z,94114.97
2018-11-12T16:18:01.418Z,94116.86
2018-11-12T16:20:29.511Z,94107.23
2018-11-12T16:22:59.118Z,94118.79
2018-11-12T16:25:27.280Z,94118.61
2018-11-12T16:27:54.776Z,94114.34
2018-11-12T16:30:23.006Z,94112.90
2018-11-12T16:32:50.607Z,94119.63
2018-11-12T16:35:19.514Z,94120.77
2018-11-12T16:37:47.887Z,94119.23
2018-11-12T16:40:15.442Z,94134.02
2018-11-12T16:42:44.399Z,94138.11
2018-11-12T16:45:12.858Z,94133.27
2018-11-12T16:47:40.427Z,94133.63
2018-11-12T16:50:08.633Z,94140.56
2018-11-12T16:52:36.345Z,94139.73
2018-11-12T16:55:04.883Z,94147.07
2018-11-12T16:57:32.516Z,94148.73
2018-11-12T17:00:00.347Z,94154.37
2018-11-12T17:02:27.938Z,94156.76
2018-11-12T17:04:55.458Z,94161.03
2018-11-12T17:07:23.022Z,94163.29
2018-11-12T17:09:50.705Z,94161.38
2018-11-12T17:12:18.791Z,94152.78
2018-11-12T17:14:46.286Z,94159.87
2018-11-12T17:17:13.895Z,94162.30
2018-11-12T17:19:41.515Z,94161.03
2018-11-12T17:22:09.099Z,94167.41
2018-11-12T17:24:36.752Z,94173.13
2018-11-12T17:27:04.473Z,94170.30
2018-11-12T17:29:31.999Z,94171.48
2018-11-12T17:32:01.304Z,94164.91
2018-11-12T17:34:28.969Z,94171.80
2018-11-12T17:36:56.523Z,94173.55
2018-11-12T17:39:24.057Z,94172.50
2018-11-12T17:41:51.577Z,94175.46
2018-11-12T17:44:19.159Z,94175.19
2018-11-12T17:46:46.662Z,94179.14
2018-11-12T17:49:14.643Z,94185.00
2018-11-12T17:51:42.364Z,94191.81
2018-11-12T17:54:09.981Z,94188.36
2018-11-12T17:56:37.559Z,94183.67
2018-11-12T17:59:05.168Z,94183.91
2018-11-12T18:01:32.781Z,94185.22
2018-11-12T18:04:00.251Z,94198.59
2018-11-12T18:06:28.710Z,94197.19
2018-11-12T18:08:56.365Z,94201.13
2018-11-12T18:11:24.043Z,94197.48
2018-11-12T18:13:51.766Z,94205.98
2018-11-12T18:16:19.526Z,94209.42
2018-11-12T18:18:48.030Z,94208.81
2018-11-12T18:21:15.568Z,94206.16
2018-11-12T18:23:43.273Z,94201.45
2018-11-12T18:26:10.838Z,94204.34
2018-11-12T18:28:38.411Z,94207.79
2018-11-12T18:31:06.227Z,94204.88
2018-11-12T18:33:34.266Z,94213.98
2018-11-12T18:36:02.031Z,94204.47
2018-11-12T18:38:29.656Z,94214.20
2018-11-12T18:40:58.179Z,94216.28
2018-11-12T18:43:25.710Z,94215.83
2018-11-12T18:45:53.264Z,94215.87
2018-11-12T18:48:20.809Z,94212.27
2018-11-12T18:50:48.319Z,94216.08
2018-11-12T18:53:15.891Z,94216.30
2018-11-12T18:55:43.454Z,94223.63
2018-11-12T18:58:11.118Z,94220.64
2018-11-12T19:00:38.684Z,94220.33
2018-11-12T19:03:06.279Z,94219.51
2018-11-12T19:05:33.797Z,94219.34
2018-11-12T19:08:01.955Z,94215.80
2018-11-12T19:10:31.151Z,94209.21
2018-11-12T19:12:58.890Z,94214.20
2018-11-12T19:15:29.311Z,94216.02
2018-11-12T19:17:57.731Z,94222.36
2018-11-12T19:20:25.300Z,94222.69
2018-11-12T19:22:53.413Z,94222.09
2018-11-12T19:25:21.162Z,94220.47
2018-11-12T19:27:48.855Z,94204.67
2018-11-12T19:30:18.149Z,94210.11
2018-11-12T19:32:45.740Z,94223.10
2018-11-12T19:35:14.202Z,94224.11
2018-11-12T19:37:41.886Z,94219.99
2018-11-12T19:40:11.909Z,94221.00
2018-11-12T19:42:39.551Z,94217.42
2018-11-12T19:45:07.764Z,94223.94
2018-11-12T19:47:35.404Z,94222.27
2018-11-12T19:50:03.284Z,94229.33
2018-11-12T19:52:30.970Z,94235.78
2018-11-12T19:54:58.745Z,94229.42
2018-11-12T19:57:26.504Z,94228.03
2018-11-12T19:59:54.040Z,94226.64
2018-11-12T20:02:21.571Z,94229.95
2018-11-12T20:04:49.190Z,94224.06
2018-11-12T20:07:16.875Z,94224.71
2018-11-12T20:09:44.551Z,94229.11
2018-11-12T20:12:12.141Z,94230.86
2018-11-12T20:14:39.976Z,94238.00
2018-11-12T20:17:07.707Z,94227.94
2018-11-12T20:19:35.354Z,94232.80
2018-11-12T20:22:03.930Z,94236.92
2018-11-12T20:24:32.728Z,94234.70
2018-11-12T20:27:00.254Z,94240.87
2018-11-12T20:29:28.463Z,94238.37
2018-11-12T20:31:56.135Z,94239.23
2018-11-12T20:34:23.662Z,94235.36
2018-11-12T20:36:51.321Z,94239.36
2018-11-12T20:39:18.909Z,94240.98
2018-11-12T20:41:46.786Z,94238.07
2018-11-12T20:44:14.775Z,94243.23
2018-11-12T20:46:42.427Z,94240.88
2018-11-12T20:49:09.975Z,94239.33
2018-11-12T20:51:38.892Z,94237.02
2018-11-12T20:54:07.456Z,94239.28
2018-11-12T20:56:35.139Z,94245.09
2018-11-12T20:59:02.839Z,94250.16
2018-11-12T21:01:31.175Z,94249.04
2018-11-12T21:03:58.823Z,94245.30
2018-11-12T21:06:26.385Z,94250.98
2018-11-12T21:08:53.955Z,94248.77
2018-11-12T21:11:21.488Z,94247.41
2018-11-12T21:13:49.106Z,94248.48
2018-11-12T21:16:16.759Z,94247.53
2018-11-12T21:18:44.319Z,94248.77
2018-11-12T21:21:12.647Z,94259.28
2018-11-12T21:23:40.406Z,94265.17
2018-11-12T21:26:07.975Z,94260.55
2018-11-12T21:28:35.626Z,94259.28
2018-11-12T21:31:03.160Z,94256.66
2018-11-12T21:33:30.858Z,94256.05
2018-11-12T21:35:58.431Z,94253.98
2018-11-12T21:38:26.026Z,94259.55
2018-11-12T21:40:53.554Z,94264.00
2018-11-12T21:43:21.236Z,94257.69
2018-11-12T21:45:48.917Z,94255.13
2018-11-12T21:48:16.470Z,94252.58
2018-11-12T21:50:44.133Z,94254.30
2018-11-12T21:53:11.973Z,94255.89
2018-11-12T21:55:39.561Z,94254.03
2018-11-12T21:58:07.202Z,94254.66
2018-11-12T22:00:34.710Z,94252.03
2018-11-12T22:03:03.790Z,94253.66
2018-11-12T22:05:32.272Z,94254.30
2018-11-12T22:08:00.145Z,94250.74
2018-11-12T22:10:27.783Z,94255.55
2018-11-12T22:12:55.701Z,94264.52
2018-11-12T22:15:23.266Z,94258.16
2018-11-12T22:17:50.946Z,94260.97
2018-11-12T22:20:20.138Z,94259.84
2018-11-12T22:22:47.640Z,94263.78
2018-11-12T22:25:19.278Z,94267.67
2018-11-12T22:27:47.553Z,94269.04
2018-11-12T22:30:16.750Z,94276.01
2018-11-12T22:32:45.940Z,94253.53
2018-11-12T22:35:13.439Z,94257.42
2018-11-12T22:37:41.505Z,94247.76
2018-11-12T22:40:10.275Z,94252.84
2018-11-12T22:42:38.034Z,94248.45
2018-11-12T22:45:06.576Z,94250.30
2018-11-12T22:47:34.262Z,94246.72
2018-11-12T22:50:01.932Z,94259.63
2018-11-12T22:52:29.566Z,94254.37
2018-11-12T22:54:57.285Z,94255.89
2018-11-12T22:57:24.814Z,94253.69
2018-11-12T22:59:52.391Z,94247.16
2018-11-12T23:02:19.916Z,94247.33
2018-11-12T23:04:47.543Z,94245.95
2018-11-12T23:07:15.185Z,94240.59
2018-11-12T23:09:42.928Z,94227.16
2018-11-12T23:12:10.443Z,94234.31
2018-11-12T23:14:38.017Z,94234.09
2018-11-12T23:17:05.551Z,94230.70
2018-11-12T23:19:33.421Z,94231.75
2018-11-12T23:22:01.023Z,94235.42
2018-11-12T23:24:28.526Z,94224.36
2018-11-12T23:26:56.406Z,94221.14
2018-11-12T23:29:23.919Z,94220.91
2018-11-12T23:31:51.430Z,94231.37
2018-11-12T23:34:19.072Z,94232.02
2018-11-12T23:36:46.579Z,94236.19
2018-11-12T23:39:14.111Z,94227.01
2018-11-12T23:41:41.593Z,94238.98
2018-11-12T23:44:09.226Z,94236.25
2018-11-12T23:46:36.866Z,94238.33
2018-11-12T23:49:05.340Z,94243.46
2018-11-12T23:51:32.866Z,94246.84
2018-11-12T23:54:00.693Z,94251.33
2018-11-12T23:56:28.246Z,94258.73
2018-11-12T23:58:55.858Z,94251.98
